Impacts METAR Board
IDs:

KMSY - New Orleans/Armstron, LA, US

Updated at: 1400 UTC 19 Feb 2020
Potential Impact None Slight Moderate High
Time 19/02Z 19/03Z 19/04Z 19/05Z 19/06Z 19/07Z 19/08Z 19/09Z 19/10Z 19/11Z 19/12Z 19/13Z 19/14Z
Temp73 73 72 70 70 70 69 69 70 68 68 67 68
Dewpt69 68 68 68 68 67 67 67 67 65 64 64 64
Altim30.09 30.09 30.10 30.10 30.11 30.12 30.11 30.11 30.12 30.14 30.15 30.18 30.20
VIS10 9 7 0.5 0.5 1 1 1 4 6 6 6 10
CIG90 80 80 2 17 45 15 2 45 4 6 7 6
CoverOVCOVCBKNOVCOVCOVCOVCOVCOVCOVCOVCOVCOVC
FltCatVFRVFRVFRLIFRLIFRIFRIFRLIFRMVFRLIFRIFRIFRIFR
WX------BRBRBRBRBR-RA BRBRBRBR--
WDir210200200019019000320350302020
WSpd3 4 3 0 5 5 0 0 6 4 6 6 6
WGst-- -- -- -- -- -- -- -- -- -- -- -- --
R01/19
XWnd 1 0 0 VRB -0 -0 VRB VRB 5 2 -2 -1 -1
HWnd -3 -4 -3 VRB -5 -5 VRB VRB 3 4 6 6 6
R10/28
XWnd -3 -4 -3 VRB -5 -5 VRB VRB 3 4 6 6 6
HWnd -1 -0 -0 VRB 0 0 VRB VRB -5 -2 2 1 1
Raw hourly METARs
KMSY 190153Z 21003KT 10SM OVC090 23/21 A3009 RMK AO2 SLP190 T02280206
KMSY 190253Z 20004KT 9SM FEW040 OVC080 23/20 A3009 RMK AO2 SLP194 T02280200 51017
KMSY 190353Z 20003KT 7SM FEW040 BKN080 22/20 A3010 RMK AO2 SLP196 T02220200
KMSY 190453Z 00000KT 1/2SM BR BKN002 OVC031 21/20 A3010 RMK AO2 SFC VIS 3 SLP196 T02110200
KMSY 190553Z 19005KT 1/2SM BR SCT002 BKN017 OVC085 21/20 A3011 RMK AO2 SFC VIS 2 SLP199 T02110200 10244 20211 402720194 50003
KMSY 190653Z 19005KT 1SM BR FEW002 OVC045 21/19 A3012 RMK AO2 SFC VIS 4 RAB0555E01 SLP201 P0000 T02110194
KMSY 190804Z 00000KT 1SM BR FEW002 BKN015 OVC049 21/19 A3011 RMK AO2 SFC VIS 2 1/2 T02060194
KMSY 190853Z 00000KT 1SM BR BKN002 OVC014 21/19 A3011 RMK AO2 SFC VIS 1 1/2 SLP200 60000 T02060194 51001
KMSY 191000Z 32006KT 4SM -RA BR SCT008 BKN045 OVC060 21/19 A3012 RMK AO2 P0000 T02110194 $
KMSY 191053Z 35004KT 6SM BR BKN004 OVC009 20/18 A3014 RMK AO2 RAE05 SLP209 P0000 T02000183 $
KMSY 191200Z 03006KT 6SM BR BKN006 OVC080 20/18 A3015 RMK AO2 T02000178 $
KMSY 191253Z 02006KT 6SM BR OVC007 19/18 A3018 RMK AO2 SLP221 T01940178 $
KMSY 191353Z 02006KT 10SM OVC006 20/18 A3020 RMK AO2 SLP229 T02000178



Page loaded:  14:03 UTC  |   06:03 AM Pacific  |   07:03 AM Mountain  |   08:03 AM Central  |   09:03 AM Eastern

 

ADVISORIES

FORECASTS

FORECASTS

OBSERVATIONS

USER TOOLS

ABOUT US